Time;durP1;ratioP1;P1;durP2;ratioP2;P2;SDS_P1;SDS_P2;PMS_P1;PMS_P2;Temp;Humidity;BMP_temperature;BMP_pressure;BME280_temperature;BME280_humidity;BME280_pressure;Samples;Min_cycle;Max_cycle;Signal;HPM_P1;HPM_P2
2024/03/27 00:00:07;;;;;;;0.90;0.90;;;6.70;89.20;6.20;98145.00;;;;4896806;28;122465;-63
2024/03/27 00:02:36;;;;;;;1.03;0.73;;;6.30;89.10;6.20;98138.00;;;;4892322;28;94128;-63
2024/03/27 00:05:03;;;;;;;0.67;0.67;;;6.30;89.30;6.20;98136.00;;;;4894476;28;92880;-63
2024/03/27 00:07:29;;;;;;;1.30;1.00;;;7.00;90.20;6.20;98134.00;;;;4891968;28;102700;-62
2024/03/27 00:09:54;;;;;;;0.93;0.70;;;6.30;89.60;6.10;98128.00;;;;4891884;28;122761;-62
2024/03/27 00:12:20;;;;;;;1.13;0.70;;;6.50;89.90;6.10;98132.00;;;;4893380;28;122416;-64
2024/03/27 00:14:46;;;;;;;2.63;0.83;;;6.30;89.90;6.10;98128.00;;;;4895483;28;110188;-63
2024/03/27 00:17:11;;;;;;;1.03;0.87;;;6.80;90.10;6.00;98124.00;;;;4892604;28;108167;-63
2024/03/27 00:19:37;;;;;;;0.90;0.73;;;6.20;90.00;6.00;98131.00;;;;4896548;28;122945;-64
2024/03/27 00:22:03;;;;;;;0.83;0.77;;;6.40;90.20;6.00;98124.00;;;;4894273;28;122050;-64
2024/03/27 00:24:31;;;;;;;1.77;0.50;;;6.20;90.20;6.10;98124.00;;;;4889594;28;93176;-63
2024/03/27 00:26:57;;;;;;;3.33;1.10;;;6.20;90.30;6.10;98118.00;;;;4898999;28;92463;-63
2024/03/27 00:29:23;;;;;;;1.27;1.13;;;6.30;90.40;6.10;98121.00;;;;4892103;28;92786;-62
2024/03/27 00:31:49;;;;;;;2.40;1.20;;;6.50;90.60;6.10;98116.00;;;;4895918;28;93995;-63
2024/03/27 00:34:16;;;;;;;3.77;1.30;;;6.60;90.60;6.10;98115.00;;;;4896708;28;93867;-62
2024/03/27 00:36:41;;;;;;;1.23;0.90;;;6.30;90.60;6.20;98111.00;;;;4897033;28;98878;-63
2024/03/27 00:39:07;;;;;;;1.33;1.07;;;6.70;90.70;6.20;98119.00;;;;4896199;28;121628;-62
2024/03/27 00:41:33;;;;;;;1.53;1.00;;;6.30;90.50;6.20;98108.00;;;;4897983;28;122531;-62
2024/03/27 00:43:58;;;;;;;1.03;0.93;;;6.30;90.50;6.20;98105.00;;;;4894551;28;109270;-62
2024/03/27 00:46:24;;;;;;;1.80;1.13;;;6.40;90.50;6.20;98101.00;;;;4894365;28;107597;-62
2024/03/27 00:48:50;;;;;;;1.77;1.03;;;6.40;90.50;6.20;98099.00;;;;4896641;28;93594;-63
2024/03/27 00:51:16;;;;;;;0.70;0.53;;;6.40;90.50;6.20;98080.00;;;;4894284;28;92385;-63
2024/03/27 00:53:41;;;;;;;0.97;0.60;;;6.40;90.50;6.20;98094.00;;;;4894605;28;108870;-64
2024/03/27 00:56:07;;;;;;;1.20;0.97;;;7.20;90.80;6.30;98094.00;;;;4889640;28;108263;-63
2024/03/27 00:58:33;;;;;;;1.50;0.80;;;6.40;90.50;6.30;98092.00;;;;4893197;28;123266;-63
2024/03/27 01:00:58;;;;;;;2.50;1.20;;;6.90;90.60;6.30;98087.00;;;;4896470;28;123332;-62
2024/03/27 01:03:25;;;;;;;0.70;0.70;;;6.50;90.50;6.30;98081.00;;;;4895487;28;111211;-63
2024/03/27 01:05:51;;;;;;;2.33;0.70;;;6.90;90.70;6.30;98078.00;;;;4896615;28;93053;-62
2024/03/27 01:08:16;;;;;;;1.93;0.80;;;7.10;90.70;6.30;98075.00;;;;4892761;28;104682;-62
2024/03/27 01:10:44;;;;;;;1.90;0.77;;;6.40;90.60;6.30;98077.00;;;;4899262;28;113028;-64
2024/03/27 01:13:10;;;;;;;1.47;0.97;;;6.40;90.60;6.30;98067.00;;;;4892494;28;93289;-64
2024/03/27 01:15:36;;;;;;;1.50;0.80;;;7.00;90.90;6.20;98077.00;;;;4901647;28;92106;-63
2024/03/27 01:18:05;;;;;;;1.93;0.83;;;6.60;90.80;6.20;98077.00;;;;4897264;28;121600;-64
2024/03/27 01:20:32;;;;;;;2.70;1.23;;;6.40;90.80;6.20;98060.00;;;;4896928;28;93328;-63
2024/03/27 01:22:58;;;;;;;2.77;0.73;;;6.30;90.90;6.10;98067.00;;;;4899280;28;94125;-63
2024/03/27 01:25:23;;;;;;;4.83;1.50;;;6.50;91.00;6.10;98071.00;;;;4902516;28;95747;-63
2024/03/27 01:27:49;;;;;;;1.23;0.97;;;6.80;91.20;6.10;98072.00;;;;4897328;28;112775;-62
2024/03/27 01:30:15;;;;;;;1.53;1.27;;;6.30;91.10;6.10;98070.00;;;;4895401;28;121991;-63
2024/03/27 01:32:41;;;;;;;2.13;0.93;;;6.30;91.10;6.10;98065.00;;;;4895145;28;92942;-62
2024/03/27 01:35:08;;;;;;;0.90;0.60;;;6.30;91.20;6.10;98067.00;;;;4893960;28;93126;-63
2024/03/27 01:37:35;;;;;;;1.77;0.90;;;6.30;91.20;6.20;98056.00;;;;4894810;28;93705;-62
2024/03/27 01:40:01;;;;;;;0.97;0.60;;;6.30;91.20;6.30;98062.00;;;;4898232;28;94112;-64
2024/03/27 01:42:26;;;;;;;0.70;0.60;;;6.90;91.30;6.30;98067.00;;;;4894229;28;109863;-63
2024/03/27 01:44:52;;;;;;;2.63;1.33;;;7.10;91.40;6.40;98060.00;;;;4896264;28;110250;-62
2024/03/27 01:47:18;;;;;;;1.30;0.93;;;6.60;91.20;6.40;98063.00;;;;4892531;28;123871;-62
2024/03/27 01:49:44;;;;;;;2.27;0.73;;;6.60;91.10;6.50;98059.00;;;;4895481;28;112856;-62
2024/03/27 01:52:11;;;;;;;1.93;0.80;;;7.30;91.20;6.60;98065.00;;;;4898612;28;108732;-62
2024/03/27 01:54:38;;;;;;;1.63;0.90;;;6.70;91.00;6.60;98063.00;;;;4897395;28;108545;-64
2024/03/27 01:57:05;;;;;;;0.93;0.70;;;7.20;90.80;6.70;98061.00;;;;4889975;28;102546;-62
2024/03/27 01:59:32;;;;;;;0.83;0.77;;;6.90;90.60;6.80;98074.00;;;;4894158;28;94499;-62
2024/03/27 02:01:58;;;;;;;1.27;0.87;;;6.90;90.50;6.90;98056.00;;;;4894689;28;97178;-62
2024/03/27 02:04:25;;;;;;;1.57;0.97;;;7.20;90.40;7.00;98063.00;;;;4895105;28;92523;-62
2024/03/27 02:06:53;;;;;;;2.67;0.60;;;7.10;90.20;7.10;98061.00;;;;4898371;28;104444;-62
2024/03/27 02:09:20;;;;;;;1.60;0.70;;;7.20;90.00;7.20;98052.00;;;;4895558;28;93281;-63
2024/03/27 02:11:45;;;;;;;1.20;0.83;;;7.20;89.90;7.20;98059.00;;;;4894811;28;94254;-62
2024/03/27 02:14:14;;;;;;;1.33;0.83;;;7.30;89.50;7.30;98053.00;;;;4899566;28;97766;-64
2024/03/27 02:16:40;;;;;;;1.60;1.23;;;7.40;89.20;7.40;98051.00;;;;4897117;28;92980;-63
2024/03/27 02:19:06;;;;;;;0.63;0.63;;;7.50;89.00;7.50;98042.00;;;;4899390;28;106136;-64
2024/03/27 02:21:33;;;;;;;2.17;0.77;;;7.60;88.20;7.60;98038.00;;;;4895242;28;93096;-63
2024/03/27 02:24:11;;;;;;;1.93;1.10;;;7.70;87.90;7.70;98039.00;;;;4895183;28;93027;-63
2024/03/27 02:26:38;;;;;;;0.23;0.23;;;7.80;87.70;7.80;98039.00;;;;4896823;28;93214;-64
2024/03/27 02:29:04;;;;;;;0.60;0.60;;;7.90;87.50;7.90;98039.00;;;;4886885;28;109362;-62
2024/03/27 02:31:30;;;;;;;1.53;0.87;;;8.00;87.00;8.00;98040.00;;;;4892065;28;93077;-62
2024/03/27 02:33:56;;;;;;;1.00;0.90;;;8.00;86.70;8.00;98030.00;;;;4893414;28;108443;-63
2024/03/27 02:36:22;;;;;;;0.93;0.60;;;8.10;86.00;8.10;98041.00;;;;4893749;28;96881;-62
2024/03/27 02:38:47;;;;;;;0.63;0.63;;;8.20;85.90;8.30;98040.00;;;;4897104;28;124225;-63
2024/03/27 02:41:13;;;;;;;1.67;0.73;;;8.30;85.50;8.40;98037.00;;;;4895434;28;108953;-63
2024/03/27 02:43:39;;;;;;;1.83;0.70;;;8.40;84.60;8.50;98043.00;;;;4896748;28;107650;-62
2024/03/27 02:46:04;;;;;;;0.67;0.57;;;8.50;84.60;8.60;98040.00;;;;4896021;28;122505;-62
2024/03/27 02:48:30;;;;;;;0.80;0.63;;;8.60;84.60;8.60;98035.00;;;;4905837;28;122767;-63
2024/03/27 02:50:56;;;;;;;0.50;0.50;;;8.70;84.30;8.70;98031.00;;;;4895577;28;93329;-62
2024/03/27 02:53:21;;;;;;;1.47;0.97;;;8.70;84.10;8.70;98029.00;;;;4893951;28;109493;-62
2024/03/27 02:55:52;;;;;;;1.33;0.70;;;8.80;83.70;8.80;98023.00;;;;4897861;28;123072;-62
2024/03/27 02:58:17;;;;;;;1.83;0.93;;;8.80;83.30;8.80;98018.00;;;;4895617;28;93898;-64
2024/03/27 03:00:44;;;;;;;0.70;0.63;;;8.90;83.00;8.90;98021.00;;;;4899013;28;93912;-62
2024/03/27 03:03:14;;;;;;;0.70;0.63;;;9.00;82.50;9.00;98024.00;;;;4892081;28;92929;-62
2024/03/27 03:05:40;;;;;;;1.73;1.03;;;9.10;82.40;9.00;98030.00;;;;4896327;28;94070;-62
2024/03/27 03:08:06;;;;;;;1.80;1.03;;;9.10;82.20;9.10;98016.00;;;;4894225;28;113382;-63
2024/03/27 03:10:32;;;;;;;1.90;0.90;;;9.20;81.80;9.10;98007.00;;;;4897602;28;109993;-63
2024/03/27 03:12:58;;;;;;;1.67;0.70;;;9.20;81.90;9.10;98007.00;;;;4899315;28;108810;-64
2024/03/27 03:15:23;;;;;;;1.10;0.90;;;9.20;81.30;9.10;98016.00;;;;4895976;28;123250;-62
2024/03/27 03:17:49;;;;;;;1.17;0.77;;;9.30;81.30;9.10;98006.00;;;;4899848;28;121550;-63
2024/03/27 03:20:15;;;;;;;2.17;0.90;;;9.20;81.10;9.10;98007.00;;;;4899715;28;92977;-63
2024/03/27 03:22:41;;;;;;;0.90;0.73;;;9.20;81.10;9.10;98004.00;;;;4900448;28;109174;-63
2024/03/27 03:25:07;;;;;;;2.20;0.60;;;9.20;81.20;9.10;98005.00;;;;4900657;28;122848;-64
2024/03/27 03:27:36;;;;;;;1.30;0.73;;;9.20;81.30;9.10;97991.00;;;;4899338;28;93065;-63
2024/03/27 03:30:03;;;;;;;1.30;1.20;;;9.20;80.80;9.10;98007.00;;;;4900776;28;93058;-63
2024/03/27 03:32:29;;;;;;;1.20;1.03;;;9.20;81.10;9.10;97992.00;;;;4896330;28;92879;-64
2024/03/27 03:34:57;;;;;;;0.80;0.70;;;9.20;81.20;9.00;97980.00;;;;4898979;28;93656;-64
2024/03/27 03:37:23;;;;;;;1.17;1.07;;;9.20;81.10;9.00;97987.00;;;;4896975;28;121871;-63
2024/03/27 03:39:49;;;;;;;1.30;0.80;;;9.10;81.30;9.00;97972.00;;;;4895810;28;105042;-63
2024/03/27 03:42:14;;;;;;;0.80;0.80;;;9.00;81.00;9.00;97971.00;;;;4897163;28;92126;-63
2024/03/27 03:44:40;;;;;;;1.20;0.80;;;9.00;81.00;9.00;97973.00;;;;4896069;28;123760;-63
2024/03/27 03:47:06;;;;;;;1.13;0.60;;;9.10;81.00;9.00;97964.00;;;;4895735;28;122936;-63
2024/03/27 03:49:31;;;;;;;1.40;0.87;;;9.10;80.90;9.00;97963.00;;;;4892260;28;110104;-63
2024/03/27 03:51:57;;;;;;;0.93;0.70;;;9.10;80.60;9.10;97965.00;;;;4895649;28;107749;-64
2024/03/27 03:54:23;;;;;;;0.87;0.80;;;9.10;80.50;9.10;97977.00;;;;4898230;28;122222;-64
2024/03/27 03:56:49;;;;;;;1.43;0.87;;;9.20;80.40;9.10;97971.00;;;;4897827;28;93670;-63
2024/03/27 03:59:14;;;;;;;0.63;0.63;;;9.20;80.50;9.10;97970.00;;;;4894909;28;109247;-63
2024/03/27 04:01:40;;;;;;;0.87;0.80;;;9.20;80.60;9.10;97971.00;;;;4892567;28;108871;-63
2024/03/27 04:04:06;;;;;;;1.33;0.83;;;9.20;80.60;9.10;97970.00;;;;4889879;28;123233;-63
2024/03/27 04:06:31;;;;;;;1.80;1.30;;;9.20;80.40;9.10;97956.00;;;;4896021;28;123109;-63
2024/03/27 04:08:57;;;;;;;1.07;0.90;;;9.20;80.00;9.10;97968.00;;;;4897969;28;109780;-63
2024/03/27 04:11:23;;;;;;;1.90;0.80;;;9.20;80.00;9.20;97959.00;;;;4889758;28;109125;-63
2024/03/27 04:13:48;;;;;;;0.97;0.57;;;9.20;79.60;9.20;97953.00;;;;4894993;28;94167;-64
2024/03/27 04:16:15;;;;;;;3.27;0.80;;;9.30;79.90;9.20;97948.00;;;;4884999;28;121310;-64
2024/03/27 04:18:41;;;;;;;0.93;0.83;;;9.30;79.50;9.20;97947.00;;;;4894421;28;93066;-63
2024/03/27 04:21:07;;;;;;;2.00;0.60;;;9.20;79.60;9.20;97954.00;;;;4896194;28;103454;-63
2024/03/27 04:23:33;;;;;;;3.00;0.77;;;9.30;79.30;9.20;97949.00;;;;4892797;28;93249;-63
2024/03/27 04:25:59;;;;;;;1.10;0.90;;;9.30;79.20;9.20;97959.00;;;;4897057;28;93263;-63
2024/03/27 04:28:25;;;;;;;2.77;0.90;;;9.30;79.40;9.20;97939.00;;;;4883105;28;110307;-63
2024/03/27 04:30:52;;;;;;;1.03;0.80;;;9.20;79.40;9.10;97941.00;;;;4896106;28;92243;-63
2024/03/27 04:33:19;;;;;;;6.40;1.10;;;9.30;79.40;9.10;97935.00;;;;4898076;28;95994;-65
2024/03/27 04:35:44;;;;;;;1.93;1.47;;;9.20;79.30;9.10;97942.00;;;;4894431;28;108249;-63
2024/03/27 04:38:10;;;;;;;1.23;0.90;;;9.20;79.30;9.10;97925.00;;;;4892864;28;111069;-64
2024/03/27 04:40:36;;;;;;;8.67;1.33;;;9.20;78.90;9.20;97930.00;;;;4896720;28;107953;-63
2024/03/27 04:43:03;;;;;;;0.90;0.70;;;9.20;79.10;9.20;97928.00;;;;4893354;28;93759;-63
2024/03/27 04:45:29;;;;;;;0.57;0.57;;;9.20;79.20;9.10;97920.00;;;;4893776;28;93960;-63
2024/03/27 04:47:55;;;;;;;1.00;0.90;;;9.20;79.10;9.10;97919.00;;;;4891588;28;96642;-64
2024/03/27 04:50:21;;;;;;;1.23;1.13;;;9.20;79.10;9.10;97917.00;;;;4894129;28;109796;-62
2024/03/27 04:52:46;;;;;;;2.00;0.97;;;9.20;79.10;9.10;97915.00;;;;4891936;28;120220;-63
2024/03/27 04:55:12;;;;;;;1.83;1.03;;;9.20;79.20;9.10;97920.00;;;;4894077;28;121021;-64
2024/03/27 04:57:38;;;;;;;1.37;1.10;;;9.20;79.30;9.10;97917.00;;;;4894885;28;92884;-63
2024/03/27 05:00:06;;;;;;;1.80;1.10;;;9.20;79.20;9.20;97922.00;;;;4902560;28;97704;-63
2024/03/27 05:02:32;;;;;;;5.07;1.53;;;9.30;79.20;9.30;97926.00;;;;4866969;28;100474;-63
2024/03/27 05:04:57;;;;;;;2.33;0.87;;;9.30;79.00;9.30;97925.00;;;;4890782;28;110862;-62
2024/03/27 05:07:23;;;;;;;4.23;0.93;;;9.30;78.90;9.30;97912.00;;;;4892139;28;110433;-62
2024/03/27 05:09:49;;;;;;;1.27;0.80;;;9.40;78.90;9.30;97918.00;;;;4904372;28;107570;-62
2024/03/27 05:12:15;;;;;;;1.70;0.73;;;9.40;78.80;9.40;97902.00;;;;4917485;28;95461;-62
2024/03/27 05:14:41;;;;;;;0.83;0.80;;;9.40;78.20;9.50;97883.00;;;;4901799;28;93293;-62
2024/03/27 05:17:12;;;;;;;2.57;1.20;;;9.60;79.20;9.50;97875.00;;;;4901440;28;92903;-64
2024/03/27 05:19:39;;;;;;;1.67;0.80;;;9.50;78.20;9.50;97855.00;;;;4908419;28;92089;-63
2024/03/27 05:22:05;;;;;;;1.80;0.90;;;9.60;78.20;9.60;97856.00;;;;4904188;28;94053;-62
2024/03/27 05:24:31;;;;;;;2.83;0.87;;;9.60;77.90;9.60;97857.00;;;;4900583;28;94485;-62
2024/03/27 05:26:57;;;;;;;1.70;1.23;;;9.70;78.10;9.70;97871.00;;;;4910771;28;93921;-62
2024/03/27 05:29:24;;;;;;;2.00;0.93;;;9.70;77.90;9.70;97878.00;;;;4905686;28;93008;-63
2024/03/27 05:31:55;;;;;;;2.70;1.00;;;9.80;78.00;9.70;97885.00;;;;4906386;28;93201;-64
2024/03/27 05:34:22;;;;;;;2.97;1.47;;;9.80;77.70;9.80;97889.00;;;;4898888;28;93194;-63
2024/03/27 05:36:48;;;;;;;1.23;0.97;;;9.80;77.70;9.80;97896.00;;;;4900479;28;93014;-64
2024/03/27 05:39:14;;;;;;;2.47;1.03;;;9.90;77.80;9.90;97888.00;;;;4901126;28;99358;-64
2024/03/27 05:41:42;;;;;;;1.57;0.83;;;9.90;77.20;9.90;97895.00;;;;4898901;28;123226;-63
2024/03/27 05:44:08;;;;;;;1.13;0.50;;;10.00;77.30;10.00;97880.00;;;;4900677;28;92828;-63
2024/03/27 05:46:35;;;;;;;3.43;0.80;;;10.00;77.20;10.00;97885.00;;;;4898399;28;92802;-64
2024/03/27 05:49:04;;;;;;;1.40;0.93;;;10.10;77.30;10.10;97881.00;;;;4900030;28;108786;-63
2024/03/27 05:51:32;;;;;;;3.20;1.20;;;10.10;77.40;10.10;97881.00;;;;4894803;28;123539;-63
2024/03/27 05:53:58;;;;;;;2.10;0.93;;;10.10;77.20;10.10;97871.00;;;;4915197;28;115555;-62
2024/03/27 05:56:24;;;;;;;4.20;1.27;;;10.10;77.20;10.10;97870.00;;;;4895587;28;109849;-62
2024/03/27 05:58:56;;;;;;;1.60;0.72;;;10.00;77.20;10.20;97879.00;;;;4736322;28;10002278;-61
2024/03/27 06:01:22;;;;;;;4.00;1.00;;;9.50;76.80;10.30;97882.00;;;;4386597;28;10001100;-64
2024/03/27 06:03:49;;;;;;;2.50;1.40;;;10.20;77.20;10.40;97876.00;;;;4893057;28;93630;-63
2024/03/27 06:06:16;;;;;;;0.50;0.50;;;10.40;77.40;10.50;97883.00;;;;4897111;28;110473;-62
2024/03/27 06:08:46;;;;;;;2.40;0.83;;;10.40;76.90;10.60;97883.00;;;;4895399;28;92108;-62
2024/03/27 06:11:12;;;;;;;1.20;1.00;;;10.60;77.10;10.70;97889.00;;;;4892487;28;93104;-63
2024/03/27 06:13:38;;;;;;;1.00;0.80;;;10.60;76.90;10.70;97884.00;;;;4894681;28;123514;-63
2024/03/27 06:16:04;;;;;;;1.43;0.90;;;10.70;76.70;10.80;97893.00;;;;4900416;28;94033;-63
2024/03/27 06:18:30;;;;;;;1.17;0.83;;;10.80;76.30;10.90;97886.00;;;;4894507;28;92870;-63
2024/03/27 06:20:56;;;;;;;6.23;0.73;;;10.90;76.20;11.10;97891.00;;;;4890178;28;102268;-62
2024/03/27 06:23:22;;;;;;;1.37;0.87;;;11.00;77.00;11.20;97883.00;;;;4883048;28;123019;-62
2024/03/27 06:25:57;;;;;;;0.70;0.70;;;11.10;75.60;11.30;97877.00;;;;4894157;28;105115;-63
2024/03/27 06:28:23;;;;;;;0.90;0.83;;;11.20;75.60;11.50;97885.00;;;;4898005;28;93538;-63
2024/03/27 06:30:58;;;;;;;0.70;0.63;;;11.40;75.40;11.70;97887.00;;;;4900612;28;92781;-63
2024/03/27 06:33:24;;;;;;;1.03;0.80;;;11.60;74.20;11.90;97893.00;;;;4896555;28;113522;-63
2024/03/27 06:35:53;;;;;;;2.83;1.23;;;11.80;74.20;12.10;97883.00;;;;4895243;28;93310;-63
2024/03/27 06:38:20;;;;;;;0.80;0.80;;;12.00;74.30;12.40;97874.00;;;;4896372;28;92837;-63
2024/03/27 06:40:46;;;;;;;1.00;0.70;;;12.20;73.60;12.60;97885.00;;;;4894833;28;93964;-63
2024/03/27 06:43:13;;;;;;;1.20;0.60;;;12.50;72.90;12.80;97898.00;;;;4894648;28;122346;-64
2024/03/27 06:45:39;;;;;;;0.97;0.60;;;12.70;73.00;13.00;97905.00;;;;4018914;28;10000704;-62
2024/03/27 06:48:06;;;;;;;2.40;1.10;;;12.90;73.00;13.20;97905.00;;;;4889734;28;93238;-62
2024/03/27 06:50:32;;;;;;;1.20;0.90;;;13.10;71.60;13.30;97903.00;;;;4887948;28;93795;-63
2024/03/27 06:52:57;;;;;;;2.10;1.10;;;13.20;71.90;13.40;97907.00;;;;4893090;28;93363;-62
2024/03/27 06:55:23;;;;;;;1.77;0.97;;;13.30;72.10;13.50;97913.00;;;;4893189;28;109650;-64
2024/03/27 06:57:49;;;;;;;1.13;1.03;;;13.40;69.80;13.50;97905.00;;;;4894413;28;121515;-63
2024/03/27 07:00:14;;;;;;;1.23;0.82;;;13.50;68.60;13.50;97896.00;;;;4895493;28;94008;-64
2024/03/27 07:02:41;;;;;;;4.63;1.08;;;13.50;67.80;13.40;97896.00;;;;4893190;28;96644;-63
2024/03/27 07:05:08;;;;;;;0.80;0.80;;;13.40;67.50;13.50;97909.00;;;;4018416;28;10000713;-62
2024/03/27 07:07:34;;;;;;;1.80;0.87;;;13.50;66.90;13.40;97918.00;;;;4892900;28;101402;-63
2024/03/27 07:10:00;;;;;;;3.53;0.80;;;13.40;66.60;13.50;97911.00;;;;4893791;28;108023;-64
2024/03/27 07:12:26;;;;;;;2.10;0.70;;;13.40;66.50;13.50;97911.00;;;;4894197;28;107991;-63
2024/03/27 07:14:52;;;;;;;1.63;0.70;;;14.40;67.00;13.60;97909.00;;;;4890214;28;120325;-63
2024/03/27 07:17:17;;;;;;;0.70;0.70;;;13.60;66.00;13.70;97911.00;;;;4895985;28;111160;-63
2024/03/27 07:19:47;;;;;;;0.93;0.77;;;13.60;66.10;13.90;97911.00;;;;4892371;28;109439;-63
2024/03/27 07:22:16;;;;;;;0.97;0.60;;;13.80;65.30;14.00;97906.00;;;;4891584;28;109367;-63
2024/03/27 07:24:42;;;;;;;1.13;0.70;;;14.20;65.10;14.10;97904.00;;;;4892925;28;95358;-63
2024/03/27 07:27:08;;;;;;;1.55;1.08;;;14.00;64.20;14.20;97896.00;;;;4895219;28;92829;-63
2024/03/27 07:29:35;;;;;;;1.63;0.60;;;14.10;63.60;14.30;97903.00;;;;4897582;28;93838;-64
2024/03/27 07:32:01;;;;;;;0.75;0.73;;;14.20;62.70;14.30;97902.00;;;;4894478;28;93084;-63
2024/03/27 07:34:27;;;;;;;0.63;0.63;;;14.30;62.90;14.50;97913.00;;;;4892989;28;105276;-63
2024/03/27 07:36:53;;;;;;;1.48;0.93;;;14.40;63.00;14.60;97909.00;;;;4891803;28;109677;-63
2024/03/27 07:39:19;;;;;;;1.58;0.70;;;14.50;62.70;14.70;97916.00;;;;4892930;28;107610;-64
2024/03/27 07:41:45;;;;;;;1.00;0.90;;;14.60;62.20;14.70;97917.00;;;;4888595;28;92971;-63
2024/03/27 07:44:11;;;;;;;1.60;0.65;;;14.60;60.80;14.80;97912.00;;;;4892755;28;123042;-63
2024/03/27 07:46:37;;;;;;;3.15;1.00;;;14.70;60.80;14.80;97919.00;;;;4896375;28;92322;-64
2024/03/27 07:49:03;;;;;;;1.27;0.75;;;14.70;60.90;14.90;97912.00;;;;4882205;28;107942;-63
2024/03/27 07:51:28;;;;;;;0.75;0.50;;;14.80;60.70;14.90;97911.00;;;;4895856;28;93358;-62
2024/03/27 07:53:54;;;;;;;1.40;0.80;;;14.80;59.70;15.10;97915.00;;;;4883660;28;122537;-63
2024/03/27 07:56:20;;;;;;;1.15;1.05;;;15.00;60.10;15.10;97907.00;;;;4891559;28;110225;-62
2024/03/27 07:58:45;;;;;;;1.33;1.10;;;15.00;59.20;15.20;97911.00;;;;4890884;28;108932;-63
2024/03/27 08:01:12;;;;;;;1.02;0.70;;;15.10;59.40;15.30;97914.00;;;;4891408;28;122013;-63
2024/03/27 08:03:38;;;;;;;0.55;0.50;;;15.20;58.70;15.40;97917.00;;;;4895095;28;93847;-63
2024/03/27 08:06:04;;;;;;;0.70;0.70;;;15.30;59.00;15.50;97917.00;;;;4895492;28;93021;-63
2024/03/27 08:08:30;;;;;;;1.55;0.85;;;15.40;58.40;15.60;97931.00;;;;4891231;28;93184;-63
2024/03/27 08:11:00;;;;;;;0.85;0.75;;;15.50;58.10;15.60;97926.00;;;;4893493;28;119809;-63
2024/03/27 08:13:26;;;;;;;0.80;0.73;;;15.60;58.40;15.80;97929.00;;;;4893348;28;92901;-63
2024/03/27 08:15:52;;;;;;;1.13;0.75;;;15.70;58.10;15.90;97929.00;;;;4892947;28;92760;-64
2024/03/27 08:18:18;;;;;;;2.13;1.02;;;15.80;57.60;16.00;97934.00;;;;4892416;28;107847;-63
2024/03/27 08:20:56;;;;;;;1.33;0.85;;;15.90;57.70;16.10;97931.00;;;;4889217;28;121734;-63
2024/03/27 08:23:22;;;;;;;0.82;0.68;;;16.00;57.50;16.20;97919.00;;;;4891387;28;122378;-62
2024/03/27 08:25:48;;;;;;;1.15;0.63;;;16.10;57.30;16.40;97911.00;;;;4892794;28;110433;-62
2024/03/27 08:28:14;;;;;;;2.00;1.02;;;16.30;57.20;16.60;97919.00;;;;4888578;28;109264;-62
2024/03/27 08:30:43;;;;;;;1.20;0.45;;;16.40;56.70;16.60;97917.00;;;;4893399;28;123333;-61
2024/03/27 08:33:09;;;;;;;0.88;0.70;;;16.50;56.00;16.60;97916.00;;;;4891392;28;97072;-63
2024/03/27 08:35:41;;;;;;;1.90;1.13;;;16.50;56.40;16.70;97919.00;;;;4890688;28;104537;-64
2024/03/27 08:38:08;;;;;;;1.25;0.93;;;16.60;57.00;17.00;97914.00;;;;4890331;28;92914;-62
2024/03/27 08:40:34;;;;;;;2.75;0.65;;;16.80;56.50;17.20;97915.00;;;;4891950;28;93414;-62
2024/03/27 08:43:00;;;;;;;2.22;0.90;;;17.00;55.70;17.40;97909.00;;;;4886512;28;117184;-65
2024/03/27 08:45:26;;;;;;;1.67;1.05;;;17.20;55.20;17.50;97906.00;;;;4885820;28;109477;-63
2024/03/27 08:47:52;;;;;;;0.93;0.65;;;17.50;54.30;17.60;97916.00;;;;4894297;28;93323;-63
2024/03/27 08:50:18;;;;;;;2.78;0.77;;;17.50;54.00;17.60;97914.00;;;;4889052;28;110682;-65
2024/03/27 08:52:45;;;;;;;1.17;0.88;;;17.40;53.70;17.60;97904.00;;;;4892418;28;93084;-63
2024/03/27 08:55:12;;;;;;;1.63;1.10;;;17.50;53.40;17.60;97910.00;;;;4891820;28;93586;-62
2024/03/27 08:57:38;;;;;;;0.80;0.45;;;17.50;52.70;17.50;97912.00;;;;4892940;28;92859;-63
2024/03/27 09:00:05;;;;;;;0.52;0.52;;;17.40;53.00;17.40;97896.00;;;;4887309;28;106549;-63
2024/03/27 09:02:30;;;;;;;0.70;0.60;;;17.40;52.70;17.40;97898.00;;;;4888893;28;101708;-64
2024/03/27 09:04:56;;;;;;;2.10;0.93;;;17.40;52.60;17.30;97902.00;;;;4893188;28;109784;-63
2024/03/27 09:07:22;;;;;;;1.55;0.57;;;17.20;52.90;17.40;97901.00;;;;4890877;28;93827;-62
2024/03/27 09:09:48;;;;;;;3.03;1.35;;;17.30;53.50;17.60;97900.00;;;;4889322;28;94135;-63
2024/03/27 09:12:14;;;;;;;9.23;1.42;;;17.40;54.60;17.90;97901.00;;;;4888231;28;98184;-63
2024/03/27 09:14:40;;;;;;;1.42;1.00;;;17.60;53.00;18.00;97902.00;;;;4895945;28;93185;-64
2024/03/27 09:17:05;;;;;;;1.73;0.43;;;17.70;52.90;18.10;97901.00;;;;4893398;28;97158;-63
2024/03/27 09:19:31;;;;;;;2.58;1.05;;;17.90;52.20;18.10;97918.00;;;;4890108;28;123296;-63
2024/03/27 09:21:58;;;;;;;0.73;0.60;;;17.90;52.50;18.20;97906.00;;;;4895929;28;121833;-62
2024/03/27 09:24:24;;;;;;;0.98;0.77;;;18.00;52.20;18.20;97917.00;;;;4895438;28;92215;-64
2024/03/27 09:26:50;;;;;;;0.70;0.70;;;18.00;52.10;18.20;97915.00;;;;4886888;28;100382;-63
2024/03/27 09:29:16;;;;;;;0.70;0.70;;;18.10;51.90;18.10;97911.00;;;;4891691;28;92888;-63
2024/03/27 09:31:42;;;;;;;1.48;0.70;;;18.00;51.50;18.00;97905.00;;;;4893274;28;122451;-62
2024/03/27 09:34:08;;;;;;;1.85;0.73;;;17.90;51.70;18.00;97905.00;;;;4893555;28;110318;-62
2024/03/27 09:36:34;;;;;;;1.25;0.90;;;17.90;51.60;17.80;97909.00;;;;4908388;28;103446;-63
2024/03/27 09:39:00;;;;;;;2.25;1.23;;;17.70;51.60;17.60;97910.00;;;;4890998;28;122778;-62
2024/03/27 09:41:26;;;;;;;1.23;1.05;;;17.60;52.00;17.50;97919.00;;;;4890500;28;99179;-62
2024/03/27 09:43:55;;;;;;;4.20;0.90;;;17.80;52.70;17.30;97913.00;;;;4891077;28;92826;-63
2024/03/27 09:46:21;;;;;;;1.33;0.50;;;17.20;52.80;17.30;97915.00;;;;4893762;28;93411;-63
2024/03/27 09:48:49;;;;;;;2.25;1.27;;;17.20;52.90;17.50;97909.00;;;;4891078;28;102119;-62
2024/03/27 09:51:16;;;;;;;1.08;0.98;;;17.30;53.20;17.60;97902.00;;;;4894798;28;122357;-63
2024/03/27 09:53:44;;;;;;;1.15;0.80;;;17.40;53.00;17.60;97908.00;;;;4898303;28;94934;-62
2024/03/27 09:56:10;;;;;;;0.70;0.68;;;17.40;52.70;17.50;97917.00;;;;4895251;28;93998;-62
2024/03/27 09:58:36;;;;;;;4.35;1.38;;;17.40;52.50;17.50;97916.00;;;;4895003;28;123065;-62
2024/03/27 10:01:08;;;;;;;0.93;0.88;;;17.40;52.50;17.60;97924.00;;;;4891771;28;123090;-63
2024/03/27 10:03:37;;;;;;;0.93;0.93;;;17.30;53.00;17.60;97918.00;;;;4899872;28;93962;-64
2024/03/27 10:06:03;;;;;;;1.15;0.90;;;17.40;52.70;17.60;97916.00;;;;4894115;28;92899;-63
2024/03/27 10:08:28;;;;;;;0.80;0.70;;;17.30;52.70;17.60;97920.00;;;;4894309;28;94279;-62
2024/03/27 10:10:57;;;;;;;1.02;0.57;;;17.40;53.00;17.60;97901.00;;;;4888266;28;120883;-62
2024/03/27 10:13:24;;;;;;;1.02;0.88;;;17.40;53.10;17.60;97904.00;;;;4893141;28;92710;-63
2024/03/27 10:15:54;;;;;;;1.45;0.90;;;17.40;53.40;17.70;97900.00;;;;4894124;28;95693;-62
2024/03/27 10:18:20;;;;;;;2.58;1.00;;;17.50;53.70;18.00;97905.00;;;;4893831;28;94400;-63
2024/03/27 10:20:46;;;;;;;0.73;0.68;;;17.70;53.60;18.20;97913.00;;;;4876556;28;93865;-62
2024/03/27 10:23:12;;;;;;;1.83;0.73;;;17.90;53.30;18.40;97910.00;;;;4896984;28;98714;-63
2024/03/27 10:25:40;;;;;;;0.85;0.80;;;18.10;53.40;18.70;97903.00;;;;4893147;28;108676;-63
2024/03/27 10:28:10;;;;;;;1.60;0.57;;;18.30;52.90;18.80;97903.00;;;;4892778;28;93416;-63
2024/03/27 10:30:37;;;;;;;1.55;0.85;;;18.50;52.20;18.70;97902.00;;;;4890696;28;93506;-62
2024/03/27 10:33:03;;;;;;;3.28;1.10;;;18.50;51.40;18.70;97910.00;;;;4895626;28;93407;-62
2024/03/27 10:35:37;;;;;;;2.30;1.02;;;18.50;52.00;18.80;97906.00;;;;4894455;28;101435;-64
2024/03/27 10:38:03;;;;;;;1.10;0.80;;;18.70;52.40;18.90;97897.00;;;;4892354;28;93732;-62
2024/03/27 10:40:29;;;;;;;10.05;1.48;;;18.70;51.80;18.90;97903.00;;;;4889822;28;123277;-63
2024/03/27 10:43:14;;;;;;;0.77;0.77;;;18.70;51.60;18.80;97905.00;;;;4892518;28;109515;-63
2024/03/27 10:45:41;;;;;;;1.33;0.82;;;18.70;51.50;18.80;97911.00;;;;4891882;28;93869;-63
2024/03/27 10:48:07;;;;;;;1.52;0.70;;;18.60;51.40;18.70;97904.00;;;;4892706;28;123371;-62
2024/03/27 10:50:37;;;;;;;1.75;1.10;;;18.60;51.60;18.70;97888.00;;;;4890130;28;122620;-62
2024/03/27 10:53:05;;;;;;;0.88;0.88;;;18.60;51.90;18.80;97897.00;;;;4893846;28;110957;-63